sensor_id;sensor_type;location;lat;lon;timestamp;P1;durP1;ratioP1;P2;durP2;ratioP2
434;SDS011;204;48.942;9.256;2022-12-18T00:00:46;82.18;;;58.03;;
434;SDS011;204;48.942;9.256;2022-12-18T00:03:13;72.00;;;52.13;;
434;SDS011;204;48.942;9.256;2022-12-18T00:05:46;67.82;;;51.70;;
434;SDS011;204;48.942;9.256;2022-12-18T00:08:16;87.70;;;65.63;;
434;SDS011;204;48.942;9.256;2022-12-18T00:10:42;78.95;;;55.08;;
434;SDS011;204;48.942;9.256;2022-12-18T00:13:08;66.32;;;53.08;;
434;SDS011;204;48.942;9.256;2022-12-18T00:15:34;74.93;;;55.10;;
434;SDS011;204;48.942;9.256;2022-12-18T00:18:00;69.50;;;55.35;;
434;SDS011;204;48.942;9.256;2022-12-18T00:20:26;63.30;;;52.13;;
434;SDS011;204;48.942;9.256;2022-12-18T00:22:52;66.30;;;53.43;;
434;SDS011;204;48.942;9.256;2022-12-18T00:25:18;66.55;;;51.75;;
434;SDS011;204;48.942;9.256;2022-12-18T00:27:44;68.40;;;51.87;;
434;SDS011;204;48.942;9.256;2022-12-18T00:30:09;65.07;;;49.83;;
434;SDS011;204;48.942;9.256;2022-12-18T00:32:35;75.47;;;46.45;;
434;SDS011;204;48.942;9.256;2022-12-18T00:35:02;70.22;;;47.75;;
434;SDS011;204;48.942;9.256;2022-12-18T00:37:28;63.30;;;46.50;;
434;SDS011;204;48.942;9.256;2022-12-18T00:39:53;61.23;;;46.80;;
434;SDS011;204;48.942;9.256;2022-12-18T00:42:19;61.90;;;45.97;;
434;SDS011;204;48.942;9.256;2022-12-18T00:45:03;67.57;;;45.25;;
434;SDS011;204;48.942;9.256;2022-12-18T00:47:29;65.22;;;45.60;;
434;SDS011;204;48.942;9.256;2022-12-18T00:49:54;69.37;;;44.43;;
434;SDS011;204;48.942;9.256;2022-12-18T00:52:20;67.57;;;46.30;;
434;SDS011;204;48.942;9.256;2022-12-18T00:54:46;69.43;;;45.93;;
434;SDS011;204;48.942;9.256;2022-12-18T00:57:11;69.83;;;45.70;;
434;SDS011;204;48.942;9.256;2022-12-18T00:59:37;60.17;;;41.00;;
434;SDS011;204;48.942;9.256;2022-12-18T01:02:02;63.63;;;46.17;;
434;SDS011;204;48.942;9.256;2022-12-18T01:04:28;65.87;;;46.43;;
434;SDS011;204;48.942;9.256;2022-12-18T01:06:56;60.72;;;47.55;;
434;SDS011;204;48.942;9.256;2022-12-18T01:09:22;61.93;;;45.70;;
434;SDS011;204;48.942;9.256;2022-12-18T01:11:47;62.50;;;46.00;;
434;SDS011;204;48.942;9.256;2022-12-18T01:14:13;66.17;;;45.40;;
434;SDS011;204;48.942;9.256;2022-12-18T01:16:39;65.70;;;46.80;;
434;SDS011;204;48.942;9.256;2022-12-18T01:19:04;61.47;;;44.33;;
434;SDS011;204;48.942;9.256;2022-12-18T01:21:30;67.83;;;47.20;;
434;SDS011;204;48.942;9.256;2022-12-18T01:23:56;72.90;;;48.20;;
434;SDS011;204;48.942;9.256;2022-12-18T01:26:22;59.00;;;44.85;;
434;SDS011;204;48.942;9.256;2022-12-18T01:28:48;60.30;;;43.30;;
434;SDS011;204;48.942;9.256;2022-12-18T01:31:16;69.33;;;48.30;;
434;SDS011;204;48.942;9.256;2022-12-18T01:33:49;62.70;;;45.05;;
434;SDS011;204;48.942;9.256;2022-12-18T01:36:17;66.63;;;43.97;;
434;SDS011;204;48.942;9.256;2022-12-18T01:38:51;61.85;;;44.65;;
434;SDS011;204;48.942;9.256;2022-12-18T01:41:19;65.53;;;44.90;;
434;SDS011;204;48.942;9.256;2022-12-18T01:43:57;67.45;;;43.70;;
434;SDS011;204;48.942;9.256;2022-12-18T01:46:26;64.35;;;44.03;;
434;SDS011;204;48.942;9.256;2022-12-18T01:48:53;67.15;;;47.10;;
434;SDS011;204;48.942;9.256;2022-12-18T01:51:22;61.35;;;42.97;;
434;SDS011;204;48.942;9.256;2022-12-18T01:53:47;65.47;;;44.27;;
434;SDS011;204;48.942;9.256;2022-12-18T01:56:17;65.90;;;43.28;;
434;SDS011;204;48.942;9.256;2022-12-18T01:58:46;59.15;;;41.92;;
434;SDS011;204;48.942;9.256;2022-12-18T02:01:16;59.83;;;43.70;;
434;SDS011;204;48.942;9.256;2022-12-18T02:03:43;57.27;;;43.10;;
434;SDS011;204;48.942;9.256;2022-12-18T02:08:58;60.47;;;44.75;;
434;SDS011;204;48.942;9.256;2022-12-18T02:14:23;67.90;;;47.83;;
434;SDS011;204;48.942;9.256;2022-12-18T02:21:48;65.57;;;46.27;;
434;SDS011;204;48.942;9.256;2022-12-18T02:24:24;68.53;;;48.45;;
434;SDS011;204;48.942;9.256;2022-12-18T02:27:03;65.95;;;46.72;;
434;SDS011;204;48.942;9.256;2022-12-18T02:29:33;67.45;;;46.97;;
434;SDS011;204;48.942;9.256;2022-12-18T02:32:03;67.30;;;49.28;;
434;SDS011;204;48.942;9.256;2022-12-18T02:34:36;75.38;;;50.60;;
434;SDS011;204;48.942;9.256;2022-12-18T02:37:04;70.32;;;48.13;;
434;SDS011;204;48.942;9.256;2022-12-18T02:39:33;66.50;;;48.90;;
434;SDS011;204;48.942;9.256;2022-12-18T02:42:01;67.57;;;46.78;;
434;SDS011;204;48.942;9.256;2022-12-18T02:44:32;70.32;;;47.45;;
434;SDS011;204;48.942;9.256;2022-12-18T02:47:16;70.55;;;49.72;;
434;SDS011;204;48.942;9.256;2022-12-18T02:49:47;64.82;;;48.50;;
434;SDS011;204;48.942;9.256;2022-12-18T02:58:15;56.67;;;39.80;;
434;SDS011;204;48.942;9.256;2022-12-18T03:00:48;67.45;;;49.58;;
434;SDS011;204;48.942;9.256;2022-12-18T03:03:28;64.22;;;48.17;;
434;SDS011;204;48.942;9.256;2022-12-18T03:06:00;65.07;;;46.40;;
434;SDS011;204;48.942;9.256;2022-12-18T03:08:35;71.78;;;49.47;;
434;SDS011;204;48.942;9.256;2022-12-18T03:11:07;65.93;;;45.85;;
434;SDS011;204;48.942;9.256;2022-12-18T03:13:42;77.05;;;49.80;;
434;SDS011;204;48.942;9.256;2022-12-18T03:16:18;68.53;;;49.42;;
434;SDS011;204;48.942;9.256;2022-12-18T03:18:54;66.22;;;49.10;;
434;SDS011;204;48.942;9.256;2022-12-18T03:21:45;69.75;;;50.47;;
434;SDS011;204;48.942;9.256;2022-12-18T03:24:14;66.68;;;47.75;;
434;SDS011;204;48.942;9.256;2022-12-18T03:26:42;73.35;;;50.58;;
434;SDS011;204;48.942;9.256;2022-12-18T03:29:21;70.03;;;50.42;;
434;SDS011;204;48.942;9.256;2022-12-18T03:32:09;66.20;;;47.72;;
434;SDS011;204;48.942;9.256;2022-12-18T03:34:38;65.93;;;46.63;;
434;SDS011;204;48.942;9.256;2022-12-18T03:37:06;74.70;;;48.53;;
434;SDS011;204;48.942;9.256;2022-12-18T03:39:33;66.90;;;46.47;;
434;SDS011;204;48.942;9.256;2022-12-18T03:42:15;74.00;;;48.90;;
434;SDS011;204;48.942;9.256;2022-12-18T03:47:33;68.72;;;45.30;;
434;SDS011;204;48.942;9.256;2022-12-18T03:50:07;72.10;;;48.92;;
434;SDS011;204;48.942;9.256;2022-12-18T03:52:38;62.03;;;48.15;;
434;SDS011;204;48.942;9.256;2022-12-18T03:55:09;67.70;;;47.13;;
434;SDS011;204;48.942;9.256;2022-12-18T03:57:35;70.90;;;49.60;;
434;SDS011;204;48.942;9.256;2022-12-18T04:00:07;70.43;;;47.90;;
434;SDS011;204;48.942;9.256;2022-12-18T04:02:36;66.38;;;46.42;;
434;SDS011;204;48.942;9.256;2022-12-18T04:05:05;67.95;;;49.13;;
434;SDS011;204;48.942;9.256;2022-12-18T04:07:32;65.40;;;46.13;;
434;SDS011;204;48.942;9.256;2022-12-18T04:09:58;69.97;;;47.63;;
434;SDS011;204;48.942;9.256;2022-12-18T04:12:26;65.95;;;46.40;;
434;SDS011;204;48.942;9.256;2022-12-18T04:14:53;64.25;;;46.70;;
434;SDS011;204;48.942;9.256;2022-12-18T04:17:19;61.53;;;45.60;;
434;SDS011;204;48.942;9.256;2022-12-18T04:19:45;59.40;;;39.65;;
434;SDS011;204;48.942;9.256;2022-12-18T04:22:11;60.43;;;44.37;;
434;SDS011;204;48.942;9.256;2022-12-18T04:24:36;57.03;;;44.27;;
434;SDS011;204;48.942;9.256;2022-12-18T04:27:02;59.00;;;44.27;;
434;SDS011;204;48.942;9.256;2022-12-18T04:29:28;63.65;;;45.20;;
434;SDS011;204;48.942;9.256;2022-12-18T04:31:53;60.90;;;44.30;;
434;SDS011;204;48.942;9.256;2022-12-18T04:34:19;61.97;;;41.50;;
434;SDS011;204;48.942;9.256;2022-12-18T04:36:45;56.17;;;41.77;;
434;SDS011;204;48.942;9.256;2022-12-18T04:39:11;61.37;;;41.50;;
434;SDS011;204;48.942;9.256;2022-12-18T04:41:36;61.90;;;42.20;;
434;SDS011;204;48.942;9.256;2022-12-18T04:44:02;51.03;;;40.27;;
434;SDS011;204;48.942;9.256;2022-12-18T04:46:27;56.00;;;41.77;;
434;SDS011;204;48.942;9.256;2022-12-18T04:48:53;59.00;;;39.10;;
434;SDS011;204;48.942;9.256;2022-12-18T04:51:19;56.90;;;41.03;;
434;SDS011;204;48.942;9.256;2022-12-18T04:53:44;56.30;;;40.43;;
434;SDS011;204;48.942;9.256;2022-12-18T04:56:11;51.17;;;38.77;;
434;SDS011;204;48.942;9.256;2022-12-18T04:58:38;58.65;;;39.80;;
434;SDS011;204;48.942;9.256;2022-12-18T05:01:04;52.50;;;40.95;;
434;SDS011;204;48.942;9.256;2022-12-18T05:03:31;54.25;;;38.80;;
434;SDS011;204;48.942;9.256;2022-12-18T05:05:56;52.27;;;39.50;;
434;SDS011;204;48.942;9.256;2022-12-18T05:08:22;57.07;;;39.97;;
434;SDS011;204;48.942;9.256;2022-12-18T05:10:48;51.28;;;38.45;;
434;SDS011;204;48.942;9.256;2022-12-18T05:13:13;56.30;;;40.37;;
434;SDS011;204;48.942;9.256;2022-12-18T05:15:39;56.60;;;37.30;;
434;SDS011;204;48.942;9.256;2022-12-18T05:18:06;51.55;;;40.10;;
434;SDS011;204;48.942;9.256;2022-12-18T05:20:32;53.07;;;37.37;;
434;SDS011;204;48.942;9.256;2022-12-18T05:22:58;49.77;;;37.10;;
434;SDS011;204;48.942;9.256;2022-12-18T05:25:23;51.93;;;36.20;;
434;SDS011;204;48.942;9.256;2022-12-18T05:27:49;51.60;;;38.33;;
434;SDS011;204;48.942;9.256;2022-12-18T05:30:15;50.60;;;36.30;;
434;SDS011;204;48.942;9.256;2022-12-18T05:32:41;50.58;;;38.90;;
434;SDS011;204;48.942;9.256;2022-12-18T05:35:07;50.45;;;38.00;;
434;SDS011;204;48.942;9.256;2022-12-18T05:37:34;57.08;;;42.03;;
434;SDS011;204;48.942;9.256;2022-12-18T05:40:00;48.88;;;36.08;;
434;SDS011;204;48.942;9.256;2022-12-18T05:42:27;55.40;;;38.00;;
434;SDS011;204;48.942;9.256;2022-12-18T05:44:53;53.00;;;37.80;;
434;SDS011;204;48.942;9.256;2022-12-18T05:47:18;46.67;;;35.80;;
434;SDS011;204;48.942;9.256;2022-12-18T05:49:44;48.63;;;35.53;;
434;SDS011;204;48.942;9.256;2022-12-18T05:52:10;50.10;;;36.60;;
434;SDS011;204;48.942;9.256;2022-12-18T05:54:35;53.27;;;35.57;;
434;SDS011;204;48.942;9.256;2022-12-18T05:57:01;50.87;;;35.37;;
434;SDS011;204;48.942;9.256;2022-12-18T05:59:26;46.20;;;34.53;;
434;SDS011;204;48.942;9.256;2022-12-18T06:01:52;55.40;;;40.00;;
434;SDS011;204;48.942;9.256;2022-12-18T06:04:18;60.40;;;43.17;;
434;SDS011;204;48.942;9.256;2022-12-18T06:06:43;52.97;;;41.67;;
434;SDS011;204;48.942;9.256;2022-12-18T06:09:09;46.60;;;36.73;;
434;SDS011;204;48.942;9.256;2022-12-18T06:11:35;49.37;;;36.63;;
434;SDS011;204;48.942;9.256;2022-12-18T06:14:02;54.15;;;40.80;;
434;SDS011;204;48.942;9.256;2022-12-18T06:16:28;64.38;;;45.80;;
434;SDS011;204;48.942;9.256;2022-12-18T06:18:58;50.78;;;38.42;;
434;SDS011;204;48.942;9.256;2022-12-18T06:21:25;48.03;;;39.00;;
434;SDS011;204;48.942;9.256;2022-12-18T06:23:51;53.58;;;37.08;;
434;SDS011;204;48.942;9.256;2022-12-18T06:26:16;50.50;;;36.60;;
434;SDS011;204;48.942;9.256;2022-12-18T06:28:42;47.67;;;38.10;;
434;SDS011;204;48.942;9.256;2022-12-18T06:31:08;57.93;;;37.90;;
434;SDS011;204;48.942;9.256;2022-12-18T06:33:34;55.97;;;41.45;;
434;SDS011;204;48.942;9.256;2022-12-18T06:36:01;55.35;;;38.83;;
434;SDS011;204;48.942;9.256;2022-12-18T06:38:27;54.30;;;44.33;;
434;SDS011;204;48.942;9.256;2022-12-18T06:40:52;45.80;;;33.50;;
434;SDS011;204;48.942;9.256;2022-12-18T06:43:18;47.57;;;34.20;;
434;SDS011;204;48.942;9.256;2022-12-18T06:45:44;46.03;;;34.03;;
434;SDS011;204;48.942;9.256;2022-12-18T06:48:09;43.43;;;34.77;;
434;SDS011;204;48.942;9.256;2022-12-18T06:50:35;37.73;;;31.40;;
434;SDS011;204;48.942;9.256;2022-12-18T06:53:00;43.67;;;33.73;;
434;SDS011;204;48.942;9.256;2022-12-18T06:55:26;45.20;;;33.43;;
434;SDS011;204;48.942;9.256;2022-12-18T06:57:51;57.83;;;39.57;;
434;SDS011;204;48.942;9.256;2022-12-18T07:00:17;48.50;;;38.00;;
434;SDS011;204;48.942;9.256;2022-12-18T07:02:43;52.83;;;37.47;;
434;SDS011;204;48.942;9.256;2022-12-18T07:05:09;50.47;;;36.27;;
434;SDS011;204;48.942;9.256;2022-12-18T07:07:34;47.37;;;34.07;;
434;SDS011;204;48.942;9.256;2022-12-18T07:10:00;43.10;;;32.00;;
434;SDS011;204;48.942;9.256;2022-12-18T07:12:28;48.57;;;34.87;;
434;SDS011;204;48.942;9.256;2022-12-18T07:14:54;46.92;;;31.70;;
434;SDS011;204;48.942;9.256;2022-12-18T07:17:20;42.43;;;31.50;;
434;SDS011;204;48.942;9.256;2022-12-18T07:19:45;39.50;;;30.13;;
434;SDS011;204;48.942;9.256;2022-12-18T07:22:11;45.80;;;32.70;;
434;SDS011;204;48.942;9.256;2022-12-18T07:24:36;47.07;;;34.30;;
434;SDS011;204;48.942;9.256;2022-12-18T07:27:02;51.23;;;34.57;;
434;SDS011;204;48.942;9.256;2022-12-18T07:29:27;43.60;;;33.50;;
434;SDS011;204;48.942;9.256;2022-12-18T07:31:53;55.93;;;33.83;;
434;SDS011;204;48.942;9.256;2022-12-18T07:34:19;49.60;;;33.23;;
434;SDS011;204;48.942;9.256;2022-12-18T07:36:44;49.20;;;35.50;;
434;SDS011;204;48.942;9.256;2022-12-18T07:39:10;49.47;;;35.30;;
434;SDS011;204;48.942;9.256;2022-12-18T07:41:36;50.05;;;35.97;;
434;SDS011;204;48.942;9.256;2022-12-18T07:44:02;43.70;;;31.90;;
434;SDS011;204;48.942;9.256;2022-12-18T07:46:28;46.20;;;32.10;;
434;SDS011;204;48.942;9.256;2022-12-18T07:48:53;45.03;;;33.80;;
434;SDS011;204;48.942;9.256;2022-12-18T07:51:19;47.77;;;34.93;;
434;SDS011;204;48.942;9.256;2022-12-18T07:53:44;55.50;;;36.97;;
434;SDS011;204;48.942;9.256;2022-12-18T07:56:11;49.97;;;35.27;;
434;SDS011;204;48.942;9.256;2022-12-18T07:58:38;48.05;;;33.20;;
434;SDS011;204;48.942;9.256;2022-12-18T08:01:08;49.13;;;33.10;;
434;SDS011;204;48.942;9.256;2022-12-18T08:03:35;52.08;;;35.15;;
434;SDS011;204;48.942;9.256;2022-12-18T08:06:02;52.17;;;35.42;;
434;SDS011;204;48.942;9.256;2022-12-18T08:08:29;43.28;;;32.35;;
434;SDS011;204;48.942;9.256;2022-12-18T08:10:58;50.22;;;34.95;;
434;SDS011;204;48.942;9.256;2022-12-18T08:13:23;53.30;;;37.00;;
434;SDS011;204;48.942;9.256;2022-12-18T08:15:59;50.70;;;35.97;;
434;SDS011;204;48.942;9.256;2022-12-18T08:18:27;48.30;;;36.35;;
434;SDS011;204;48.942;9.256;2022-12-18T08:20:53;53.10;;;37.45;;
434;SDS011;204;48.942;9.256;2022-12-18T08:23:19;53.85;;;39.70;;
434;SDS011;204;48.942;9.256;2022-12-18T08:25:45;54.80;;;37.47;;
434;SDS011;204;48.942;9.256;2022-12-18T08:28:10;56.10;;;42.47;;
434;SDS011;204;48.942;9.256;2022-12-18T08:30:36;57.27;;;42.03;;
434;SDS011;204;48.942;9.256;2022-12-18T08:33:02;51.63;;;38.17;;
434;SDS011;204;48.942;9.256;2022-12-18T08:35:27;52.60;;;37.60;;
434;SDS011;204;48.942;9.256;2022-12-18T08:37:53;55.40;;;38.77;;
434;SDS011;204;48.942;9.256;2022-12-18T08:40:19;59.33;;;41.00;;
434;SDS011;204;48.942;9.256;2022-12-18T08:42:44;57.30;;;40.30;;
434;SDS011;204;48.942;9.256;2022-12-18T08:45:28;47.50;;;35.90;;
434;SDS011;204;48.942;9.256;2022-12-18T08:47:54;57.77;;;43.40;;
434;SDS011;204;48.942;9.256;2022-12-18T08:50:20;64.07;;;45.13;;
434;SDS011;204;48.942;9.256;2022-12-18T08:52:45;59.00;;;42.80;;
434;SDS011;204;48.942;9.256;2022-12-18T08:55:11;62.73;;;44.57;;
434;SDS011;204;48.942;9.256;2022-12-18T08:57:37;57.77;;;41.90;;
434;SDS011;204;48.942;9.256;2022-12-18T09:00:03;53.27;;;37.67;;
434;SDS011;204;48.942;9.256;2022-12-18T09:02:29;53.35;;;37.55;;
434;SDS011;204;48.942;9.256;2022-12-18T09:04:55;53.80;;;40.40;;
434;SDS011;204;48.942;9.256;2022-12-18T09:07:20;51.63;;;37.53;;
434;SDS011;204;48.942;9.256;2022-12-18T09:09:46;62.20;;;41.40;;
434;SDS011;204;48.942;9.256;2022-12-18T09:12:11;56.77;;;38.80;;
434;SDS011;204;48.942;9.256;2022-12-18T09:14:39;53.35;;;36.47;;
434;SDS011;204;48.942;9.256;2022-12-18T09:17:04;47.77;;;32.63;;
434;SDS011;204;48.942;9.256;2022-12-18T09:19:30;48.53;;;36.50;;
434;SDS011;204;48.942;9.256;2022-12-18T09:21:56;46.43;;;33.40;;
434;SDS011;204;48.942;9.256;2022-12-18T09:24:21;49.70;;;33.83;;
434;SDS011;204;48.942;9.256;2022-12-18T09:26:47;43.90;;;32.87;;
434;SDS011;204;48.942;9.256;2022-12-18T09:29:13;47.43;;;32.83;;
434;SDS011;204;48.942;9.256;2022-12-18T09:31:39;53.70;;;34.58;;
434;SDS011;204;48.942;9.256;2022-12-18T09:34:05;49.70;;;34.60;;
434;SDS011;204;48.942;9.256;2022-12-18T09:36:30;47.53;;;32.20;;
434;SDS011;204;48.942;9.256;2022-12-18T09:38:56;52.17;;;33.53;;
434;SDS011;204;48.942;9.256;2022-12-18T09:46:49;48.13;;;30.90;;
434;SDS011;204;48.942;9.256;2022-12-18T09:49:22;48.83;;;31.05;;
434;SDS011;204;48.942;9.256;2022-12-18T09:55:00;49.30;;;32.05;;
434;SDS011;204;48.942;9.256;2022-12-18T09:57:26;47.75;;;31.45;;
434;SDS011;204;48.942;9.256;2022-12-18T09:59:55;46.08;;;32.13;;
434;SDS011;204;48.942;9.256;2022-12-18T10:02:26;51.33;;;38.63;;
434;SDS011;204;48.942;9.256;2022-12-18T10:18:33;49.20;;;33.63;;
434;SDS011;204;48.942;9.256;2022-12-18T10:21:04;53.17;;;35.67;;
434;SDS011;204;48.942;9.256;2022-12-18T10:24:28;47.33;;;35.72;;
434;SDS011;204;48.942;9.256;2022-12-18T10:26:49;49.72;;;32.53;;
434;SDS011;204;48.942;9.256;2022-12-18T10:29:17;54.80;;;33.85;;
434;SDS011;204;48.942;9.256;2022-12-18T10:31:43;50.28;;;32.67;;
434;SDS011;204;48.942;9.256;2022-12-18T10:34:11;55.40;;;35.90;;
434;SDS011;204;48.942;9.256;2022-12-18T10:36:38;55.17;;;35.58;;
434;SDS011;204;48.942;9.256;2022-12-18T10:39:17;49.50;;;32.42;;
434;SDS011;204;48.942;9.256;2022-12-18T10:41:46;55.20;;;34.78;;
434;SDS011;204;48.942;9.256;2022-12-18T10:44:21;57.93;;;38.33;;
434;SDS011;204;48.942;9.256;2022-12-18T10:46:49;58.75;;;37.88;;
434;SDS011;204;48.942;9.256;2022-12-18T10:49:19;70.47;;;48.13;;
434;SDS011;204;48.942;9.256;2022-12-18T10:54:47;55.38;;;34.58;;
434;SDS011;204;48.942;9.256;2022-12-18T10:57:14;54.97;;;34.15;;
434;SDS011;204;48.942;9.256;2022-12-18T10:59:51;55.20;;;37.55;;
434;SDS011;204;48.942;9.256;2022-12-18T11:05:01;57.58;;;36.70;;
434;SDS011;204;48.942;9.256;2022-12-18T11:07:46;56.75;;;35.97;;
434;SDS011;204;48.942;9.256;2022-12-18T11:10:16;53.65;;;33.97;;
434;SDS011;204;48.942;9.256;2022-12-18T11:12:44;50.03;;;34.97;;
434;SDS011;204;48.942;9.256;2022-12-18T11:15:14;59.53;;;37.53;;
434;SDS011;204;48.942;9.256;2022-12-18T11:17:51;52.28;;;36.67;;
434;SDS011;204;48.942;9.256;2022-12-18T11:20:31;51.70;;;34.55;;
434;SDS011;204;48.942;9.256;2022-12-18T11:23:03;50.28;;;32.33;;
434;SDS011;204;48.942;9.256;2022-12-18T11:25:31;50.25;;;35.22;;
434;SDS011;204;48.942;9.256;2022-12-18T11:28:42;52.30;;;35.83;;
434;SDS011;204;48.942;9.256;2022-12-18T11:31:17;65.10;;;39.35;;
434;SDS011;204;48.942;9.256;2022-12-18T11:33:56;53.38;;;35.28;;
434;SDS011;204;48.942;9.256;2022-12-18T11:36:32;55.58;;;36.28;;
434;SDS011;204;48.942;9.256;2022-12-18T11:39:03;57.88;;;35.28;;
434;SDS011;204;48.942;9.256;2022-12-18T11:41:46;51.85;;;35.58;;
434;SDS011;204;48.942;9.256;2022-12-18T11:47:11;51.05;;;33.85;;
434;SDS011;204;48.942;9.256;2022-12-18T11:49:43;49.67;;;34.45;;
434;SDS011;204;48.942;9.256;2022-12-18T11:52:21;53.08;;;34.95;;
434;SDS011;204;48.942;9.256;2022-12-18T11:54:51;55.60;;;38.08;;
434;SDS011;204;48.942;9.256;2022-12-18T12:07:44;51.17;;;36.28;;
434;SDS011;204;48.942;9.256;2022-12-18T12:13:08;45.42;;;30.23;;
434;SDS011;204;48.942;9.256;2022-12-18T12:15:47;45.33;;;27.00;;
434;SDS011;204;48.942;9.256;2022-12-18T12:24:00;46.50;;;27.50;;
434;SDS011;204;48.942;9.256;2022-12-18T12:37:40;39.67;;;24.60;;
434;SDS011;204;48.942;9.256;2022-12-18T12:40:18;48.35;;;30.00;;
434;SDS011;204;48.942;9.256;2022-12-18T12:42:47;36.42;;;23.70;;
434;SDS011;204;48.942;9.256;2022-12-18T12:51:32;40.60;;;25.10;;
434;SDS011;204;48.942;9.256;2022-12-18T12:54:01;40.83;;;25.02;;
434;SDS011;204;48.942;9.256;2022-12-18T12:56:38;38.83;;;25.10;;
434;SDS011;204;48.942;9.256;2022-12-18T12:59:19;45.47;;;29.13;;
434;SDS011;204;48.942;9.256;2022-12-18T13:04:57;41.40;;;24.83;;
434;SDS011;204;48.942;9.256;2022-12-18T13:07:40;38.03;;;24.50;;
434;SDS011;204;48.942;9.256;2022-12-18T13:18:03;35.22;;;22.88;;
434;SDS011;204;48.942;9.256;2022-12-18T13:20:33;36.22;;;23.20;;
434;SDS011;204;48.942;9.256;2022-12-18T13:23:01;35.28;;;24.27;;
434;SDS011;204;48.942;9.256;2022-12-18T13:25:46;38.90;;;24.10;;
434;SDS011;204;48.942;9.256;2022-12-18T13:31:14;38.05;;;25.00;;
434;SDS011;204;48.942;9.256;2022-12-18T13:34:09;39.55;;;23.95;;
434;SDS011;204;48.942;9.256;2022-12-18T13:36:43;40.80;;;22.55;;
434;SDS011;204;48.942;9.256;2022-12-18T13:39:20;36.60;;;21.83;;
434;SDS011;204;48.942;9.256;2022-12-18T13:41:53;32.03;;;22.05;;
434;SDS011;204;48.942;9.256;2022-12-18T13:44:59;39.20;;;24.65;;
434;SDS011;204;48.942;9.256;2022-12-18T13:50:09;41.53;;;27.60;;
434;SDS011;204;48.942;9.256;2022-12-18T13:52:44;40.45;;;25.80;;
434;SDS011;204;48.942;9.256;2022-12-18T13:55:16;38.00;;;24.43;;
434;SDS011;204;48.942;9.256;2022-12-18T13:57:44;41.88;;;29.17;;
434;SDS011;204;48.942;9.256;2022-12-18T14:02:47;41.03;;;28.48;;
434;SDS011;204;48.942;9.256;2022-12-18T14:05:27;36.55;;;23.40;;
434;SDS011;204;48.942;9.256;2022-12-18T14:07:55;51.53;;;42.53;;
434;SDS011;204;48.942;9.256;2022-12-18T14:10:26;55.25;;;35.55;;
434;SDS011;204;48.942;9.256;2022-12-18T14:12:52;45.45;;;31.00;;
434;SDS011;204;48.942;9.256;2022-12-18T14:17:54;46.42;;;25.88;;
434;SDS011;204;48.942;9.256;2022-12-18T14:20:24;39.03;;;24.63;;
434;SDS011;204;48.942;9.256;2022-12-18T14:22:51;46.45;;;30.02;;
434;SDS011;204;48.942;9.256;2022-12-18T14:27:44;45.23;;;30.40;;
434;SDS011;204;48.942;9.256;2022-12-18T14:33:00;41.60;;;30.73;;
434;SDS011;204;48.942;9.256;2022-12-18T14:35:26;45.03;;;31.60;;
434;SDS011;204;48.942;9.256;2022-12-18T14:37:52;40.20;;;25.60;;
434;SDS011;204;48.942;9.256;2022-12-18T14:40:17;38.33;;;25.33;;
434;SDS011;204;48.942;9.256;2022-12-18T14:42:43;41.13;;;24.93;;
434;SDS011;204;48.942;9.256;2022-12-18T14:48:07;36.55;;;25.00;;
434;SDS011;204;48.942;9.256;2022-12-18T14:50:36;42.08;;;27.13;;
434;SDS011;204;48.942;9.256;2022-12-18T14:53:01;41.30;;;29.20;;
434;SDS011;204;48.942;9.256;2022-12-18T14:55:28;37.78;;;26.08;;
434;SDS011;204;48.942;9.256;2022-12-18T14:57:54;41.30;;;27.63;;
434;SDS011;204;48.942;9.256;2022-12-18T15:00:22;41.03;;;25.30;;
434;SDS011;204;48.942;9.256;2022-12-18T15:02:50;35.95;;;24.83;;
434;SDS011;204;48.942;9.256;2022-12-18T15:05:20;42.28;;;29.05;;
434;SDS011;204;48.942;9.256;2022-12-18T15:07:55;44.40;;;34.70;;
434;SDS011;204;48.942;9.256;2022-12-18T15:10:26;38.88;;;26.55;;
434;SDS011;204;48.942;9.256;2022-12-18T15:23:19;38.92;;;25.63;;
434;SDS011;204;48.942;9.256;2022-12-18T15:26:01;41.17;;;27.45;;
434;SDS011;204;48.942;9.256;2022-12-18T15:33:39;41.28;;;25.95;;
434;SDS011;204;48.942;9.256;2022-12-18T15:36:10;43.40;;;28.02;;
434;SDS011;204;48.942;9.256;2022-12-18T15:38:38;41.83;;;25.70;;
434;SDS011;204;48.942;9.256;2022-12-18T15:41:04;43.10;;;27.90;;
434;SDS011;204;48.942;9.256;2022-12-18T15:43:29;47.23;;;26.90;;
434;SDS011;204;48.942;9.256;2022-12-18T15:45:58;44.92;;;28.63;;
434;SDS011;204;48.942;9.256;2022-12-18T15:48:39;39.25;;;25.88;;
434;SDS011;204;48.942;9.256;2022-12-18T15:51:10;44.30;;;27.65;;
434;SDS011;204;48.942;9.256;2022-12-18T15:53:40;42.80;;;27.27;;
434;SDS011;204;48.942;9.256;2022-12-18T15:56:13;44.57;;;28.17;;
434;SDS011;204;48.942;9.256;2022-12-18T15:58:58;42.45;;;26.35;;
434;SDS011;204;48.942;9.256;2022-12-18T16:01:28;45.40;;;27.15;;
434;SDS011;204;48.942;9.256;2022-12-18T16:03:55;40.30;;;26.67;;
434;SDS011;204;48.942;9.256;2022-12-18T16:06:22;42.30;;;27.40;;
434;SDS011;204;48.942;9.256;2022-12-18T16:08:48;44.92;;;28.73;;
434;SDS011;204;48.942;9.256;2022-12-18T16:11:23;53.60;;;31.57;;
434;SDS011;204;48.942;9.256;2022-12-18T16:16:55;43.95;;;26.85;;
434;SDS011;204;48.942;9.256;2022-12-18T16:19:22;48.97;;;28.75;;
434;SDS011;204;48.942;9.256;2022-12-18T16:21:49;42.80;;;26.58;;
434;SDS011;204;48.942;9.256;2022-12-18T16:24:20;43.63;;;28.05;;
434;SDS011;204;48.942;9.256;2022-12-18T16:26:53;46.85;;;28.42;;
434;SDS011;204;48.942;9.256;2022-12-18T16:29:20;48.50;;;30.92;;
434;SDS011;204;48.942;9.256;2022-12-18T16:31:49;49.22;;;30.15;;
434;SDS011;204;48.942;9.256;2022-12-18T16:34:28;45.95;;;27.60;;
434;SDS011;204;48.942;9.256;2022-12-18T16:39:23;41.10;;;26.95;;
434;SDS011;204;48.942;9.256;2022-12-18T16:41:49;43.60;;;27.90;;
434;SDS011;204;48.942;9.256;2022-12-18T16:44:15;43.43;;;26.50;;
434;SDS011;204;48.942;9.256;2022-12-18T16:46:41;46.03;;;28.90;;
434;SDS011;204;48.942;9.256;2022-12-18T16:49:13;44.03;;;27.98;;
434;SDS011;204;48.942;9.256;2022-12-18T16:51:40;43.25;;;26.33;;
434;SDS011;204;48.942;9.256;2022-12-18T16:54:05;47.10;;;29.77;;
434;SDS011;204;48.942;9.256;2022-12-18T16:56:32;46.88;;;30.00;;
434;SDS011;204;48.942;9.256;2022-12-18T16:58:58;42.27;;;26.97;;
434;SDS011;204;48.942;9.256;2022-12-18T17:01:27;45.30;;;28.75;;
434;SDS011;204;48.942;9.256;2022-12-18T17:03:57;49.13;;;29.95;;
434;SDS011;204;48.942;9.256;2022-12-18T17:06:25;42.60;;;29.02;;
434;SDS011;204;48.942;9.256;2022-12-18T17:08:56;42.65;;;27.48;;
434;SDS011;204;48.942;9.256;2022-12-18T17:11:23;44.55;;;28.33;;
434;SDS011;204;48.942;9.256;2022-12-18T17:13:50;46.90;;;29.55;;
434;SDS011;204;48.942;9.256;2022-12-18T17:16:16;47.93;;;29.33;;
434;SDS011;204;48.942;9.256;2022-12-18T17:18:42;43.72;;;30.08;;
434;SDS011;204;48.942;9.256;2022-12-18T17:21:08;43.20;;;27.20;;
434;SDS011;204;48.942;9.256;2022-12-18T17:23:35;56.17;;;30.00;;
434;SDS011;204;48.942;9.256;2022-12-18T17:26:01;37.10;;;26.00;;
434;SDS011;204;48.942;9.256;2022-12-18T17:28:28;43.72;;;27.48;;
434;SDS011;204;48.942;9.256;2022-12-18T17:30:54;42.55;;;27.83;;
434;SDS011;204;48.942;9.256;2022-12-18T17:33:21;45.22;;;27.23;;
434;SDS011;204;48.942;9.256;2022-12-18T17:35:48;45.72;;;30.60;;
434;SDS011;204;48.942;9.256;2022-12-18T17:38:14;50.03;;;35.47;;
434;SDS011;204;48.942;9.256;2022-12-18T17:40:40;45.20;;;28.38;;
434;SDS011;204;48.942;9.256;2022-12-18T17:43:06;42.17;;;27.37;;